sensor_id;sensor_type;location;lat;lon;timestamp;pressure;altitude;pressure_sealevel;temperature;humidity
7052;BME280;3567;52.444;13.556;2022-11-20T00:02:19;100787.59;;;-0.44;100.00
7052;BME280;3567;52.444;13.556;2022-11-20T00:04:44;100785.66;;;-0.42;100.00
7052;BME280;3567;52.444;13.556;2022-11-20T00:07:10;100781.34;;;-0.43;100.00
7052;BME280;3567;52.444;13.556;2022-11-20T00:09:35;100775.28;;;-0.44;100.00
7052;BME280;3567;52.444;13.556;2022-11-20T00:12:00;100784.00;;;-0.43;100.00
7052;BME280;3567;52.444;13.556;2022-11-20T00:14:26;100779.06;;;-0.46;100.00
7052;BME280;3567;52.444;13.556;2022-11-20T00:16:51;100777.53;;;-0.49;100.00
7052;BME280;3567;52.444;13.556;2022-11-20T00:19:16;100780.03;;;-0.47;100.00
7052;BME280;3567;52.444;13.556;2022-11-20T00:21:42;100774.91;;;-0.49;100.00
7052;BME280;3567;52.444;13.556;2022-11-20T00:24:08;100778.38;;;-0.48;100.00
7052;BME280;3567;52.444;13.556;2022-11-20T00:26:34;100774.78;;;-0.47;100.00
7052;BME280;3567;52.444;13.556;2022-11-20T00:29:00;100778.22;;;-0.47;100.00
7052;BME280;3567;52.444;13.556;2022-11-20T00:31:26;100775.59;;;-0.47;100.00
7052;BME280;3567;52.444;13.556;2022-11-20T00:33:52;100773.09;;;-0.48;100.00
7052;BME280;3567;52.444;13.556;2022-11-20T00:36:26;100774.78;;;-0.47;100.00
7052;BME280;3567;52.444;13.556;2022-11-20T00:38:53;100773.97;;;-0.48;100.00
7052;BME280;3567;52.444;13.556;2022-11-20T00:41:19;100778.22;;;-0.47;100.00
7052;BME280;3567;52.444;13.556;2022-11-20T00:43:44;100781.69;;;-0.46;100.00
7052;BME280;3567;52.444;13.556;2022-11-20T00:46:18;100782.16;;;-0.51;100.00
7052;BME280;3567;52.444;13.556;2022-11-20T00:48:44;100779.53;;;-0.51;100.00
7052;BME280;3567;52.444;13.556;2022-11-20T00:51:16;100773.72;;;-0.55;100.00
7052;BME280;3567;52.444;13.556;2022-11-20T00:53:43;100784.94;;;-0.52;100.00
7052;BME280;3567;52.444;13.556;2022-11-20T00:56:13;100780.63;;;-0.54;100.00
7052;BME280;3567;52.444;13.556;2022-11-20T00:58:42;100775.69;;;-0.57;100.00
7052;BME280;3567;52.444;13.556;2022-11-20T01:01:09;100786.53;;;-0.60;100.00
7052;BME280;3567;52.444;13.556;2022-11-20T01:03:38;100782.09;;;-0.59;100.00
7052;BME280;3567;52.444;13.556;2022-11-20T01:06:07;100783.22;;;-0.62;100.00
7052;BME280;3567;52.444;13.556;2022-11-20T01:08:34;100781.88;;;-0.66;100.00
7052;BME280;3567;52.444;13.556;2022-11-20T01:11:08;100785.50;;;-0.67;100.00
7052;BME280;3567;52.444;13.556;2022-11-20T01:13:34;100789.13;;;-0.68;100.00
7052;BME280;3567;52.444;13.556;2022-11-20T01:16:08;100776.78;;;-0.67;100.00
7052;BME280;3567;52.444;13.556;2022-11-20T01:18:35;100779.41;;;-0.67;100.00
7052;BME280;3567;52.444;13.556;2022-11-20T01:21:04;100776.78;;;-0.67;100.00
7052;BME280;3567;52.444;13.556;2022-11-20T01:23:32;100780.25;;;-0.67;100.00
7052;BME280;3567;52.444;13.556;2022-11-20T01:25:59;100774.31;;;-0.69;100.00
7052;BME280;3567;52.444;13.556;2022-11-20T01:28:25;100766.44;;;-0.69;100.00
7052;BME280;3567;52.444;13.556;2022-11-20T01:30:50;100764.91;;;-0.71;100.00
7052;BME280;3567;52.444;13.556;2022-11-20T01:33:15;100774.44;;;-0.70;100.00
7052;BME280;3567;52.444;13.556;2022-11-20T01:35:41;100770.34;;;-0.73;100.00
7052;BME280;3567;52.444;13.556;2022-11-20T01:38:06;100772.97;;;-0.73;100.00
7052;BME280;3567;52.444;13.556;2022-11-20T01:40:31;100772.00;;;-0.72;100.00
7052;BME280;3567;52.444;13.556;2022-11-20T01:43:12;100766.88;;;-0.73;100.00
7052;BME280;3567;52.444;13.556;2022-11-20T01:48:24;100769.53;;;-0.73;100.00
7052;BME280;3567;52.444;13.556;2022-11-20T01:50:52;100764.38;;;-0.75;100.00
7052;BME280;3567;52.444;13.556;2022-11-20T01:53:21;100766.88;;;-0.73;100.00
7052;BME280;3567;52.444;13.556;2022-11-20T01:55:50;100763.44;;;-0.74;100.00
7052;BME280;3567;52.444;13.556;2022-11-20T01:58:20;100766.06;;;-0.74;100.00
7052;BME280;3567;52.444;13.556;2022-11-20T02:00:47;100766.72;;;-0.72;100.00
7052;BME280;3567;52.444;13.556;2022-11-20T02:03:16;100768.69;;;-0.74;100.00
7052;BME280;3567;52.444;13.556;2022-11-20T02:05:46;100764.25;;;-0.73;100.00
7052;BME280;3567;52.444;13.556;2022-11-20T02:08:15;100759.13;;;-0.75;100.00
7052;BME280;3567;52.444;13.556;2022-11-20T02:10:40;100762.63;;;-0.74;100.00
7052;BME280;3567;52.444;13.556;2022-11-20T02:13:06;100755.69;;;-0.75;100.00
7052;BME280;3567;52.444;13.556;2022-11-20T02:15:50;100749.75;;;-0.77;100.00
7052;BME280;3567;52.444;13.556;2022-11-20T02:18:17;100742.84;;;-0.78;100.00
7052;BME280;3567;52.444;13.556;2022-11-20T02:20:45;100749.75;;;-0.77;100.00
7052;BME280;3567;52.444;13.556;2022-11-20T02:26:16;100744.50;;;-0.77;100.00
7052;BME280;3567;52.444;13.556;2022-11-20T02:28:43;100739.53;;;-0.81;100.00
7052;BME280;3567;52.444;13.556;2022-11-20T02:31:09;100741.50;;;-0.83;100.00
7052;BME280;3567;52.444;13.556;2022-11-20T02:33:34;100741.66;;;-0.84;100.00
7052;BME280;3567;52.444;13.556;2022-11-20T02:35:59;100749.69;;;-0.86;100.00
7052;BME280;3567;52.444;13.556;2022-11-20T02:38:25;100742.78;;;-0.87;100.00
7052;BME280;3567;52.444;13.556;2022-11-20T02:40:51;100741.66;;;-0.84;100.00
7052;BME280;3567;52.444;13.556;2022-11-20T02:43:16;100746.09;;;-0.85;100.00
7052;BME280;3567;52.444;13.556;2022-11-20T02:45:42;100747.91;;;-0.85;100.00
7052;BME280;3567;52.444;13.556;2022-11-20T02:48:07;100746.94;;;-0.84;100.00
7052;BME280;3567;52.444;13.556;2022-11-20T02:50:33;100733.91;;;-0.86;100.00
7052;BME280;3567;52.444;13.556;2022-11-20T02:52:58;100731.44;;;-0.87;100.00
7052;BME280;3567;52.444;13.556;2022-11-20T02:55:23;100737.53;;;-0.87;100.00
7052;BME280;3567;52.444;13.556;2022-11-20T02:57:49;100735.06;;;-0.88;100.00
7052;BME280;3567;52.444;13.556;2022-11-20T03:00:14;100732.59;;;-0.90;100.00
7052;BME280;3567;52.444;13.556;2022-11-20T03:02:39;100733.41;;;-0.89;100.00
7052;BME280;3567;52.444;13.556;2022-11-20T03:05:05;100734.41;;;-0.90;100.00
7052;BME280;3567;52.444;13.556;2022-11-20T03:07:30;100736.19;;;-0.91;100.00
7052;BME280;3567;52.444;13.556;2022-11-20T03:09:56;100733.72;;;-0.92;100.00
7052;BME280;3567;52.444;13.556;2022-11-20T03:12:21;100732.06;;;-0.93;100.00
7052;BME280;3567;52.444;13.556;2022-11-20T03:14:46;100732.06;;;-0.93;100.00
7052;BME280;3567;52.444;13.556;2022-11-20T03:17:12;100728.78;;;-0.95;100.00
7052;BME280;3567;52.444;13.556;2022-11-20T03:19:37;100729.59;;;-0.95;100.00
7052;BME280;3567;52.444;13.556;2022-11-20T03:22:02;100726.81;;;-0.93;100.00
7052;BME280;3567;52.444;13.556;2022-11-20T03:24:28;100727.78;;;-0.94;100.00
7052;BME280;3567;52.444;13.556;2022-11-20T03:26:53;100718.25;;;-0.95;100.00
7052;BME280;3567;52.444;13.556;2022-11-20T03:29:18;100717.56;;;-0.97;100.00
7052;BME280;3567;52.444;13.556;2022-11-20T03:31:44;100710.66;;;-0.98;100.00
7052;BME280;3567;52.444;13.556;2022-11-20T03:34:10;100713.28;;;-0.98;100.00
7052;BME280;3567;52.444;13.556;2022-11-20T03:36:40;100714.28;;;-0.99;100.00
7052;BME280;3567;52.444;13.556;2022-11-20T03:39:06;100714.44;;;-1.01;100.00
7052;BME280;3567;52.444;13.556;2022-11-20T03:41:36;100717.19;;;-1.02;100.00
7052;BME280;3567;52.444;13.556;2022-11-20T03:44:05;100718.84;;;-1.01;100.00
7052;BME280;3567;52.444;13.556;2022-11-20T03:46:31;100714.56;;;-1.02;100.00
7052;BME280;3567;52.444;13.556;2022-11-20T03:48:57;100716.69;;;-1.06;100.00
7052;BME280;3567;52.444;13.556;2022-11-20T03:51:24;100717.53;;;-1.06;100.00
7052;BME280;3567;52.444;13.556;2022-11-20T03:53:51;100714.91;;;-1.06;100.00
7052;BME280;3567;52.444;13.556;2022-11-20T03:56:19;100710.59;;;-1.07;100.00
7052;BME280;3567;52.444;13.556;2022-11-20T03:58:45;100710.91;;;-1.10;100.00
7052;BME280;3567;52.444;13.556;2022-11-20T04:01:16;100717.00;;;-1.09;100.00
7052;BME280;3567;52.444;13.556;2022-11-20T04:03:43;100723.91;;;-1.08;100.00
7052;BME280;3567;52.444;13.556;2022-11-20T04:06:20;100712.41;;;-1.07;100.00
7052;BME280;3567;52.444;13.556;2022-11-20T04:08:47;100714.38;;;-1.09;100.00
7052;BME280;3567;52.444;13.556;2022-11-20T04:11:15;100709.28;;;-1.11;100.00
7052;BME280;3567;52.444;13.556;2022-11-20T04:13:42;100702.88;;;-1.08;100.00
7052;BME280;3567;52.444;13.556;2022-11-20T04:16:09;100701.22;;;-1.09;100.00
7052;BME280;3567;52.444;13.556;2022-11-20T04:18:35;100704.69;;;-1.09;100.00
7052;BME280;3567;52.444;13.556;2022-11-20T04:21:02;100714.22;;;-1.08;100.00
7052;BME280;3567;52.444;13.556;2022-11-20T04:23:28;100709.28;;;-1.11;100.00
7052;BME280;3567;52.444;13.556;2022-11-20T04:25:53;100706.78;;;-1.12;100.00
7052;BME280;3567;52.444;13.556;2022-11-20T04:28:19;100715.50;;;-1.12;100.00
7052;BME280;3567;52.444;13.556;2022-11-20T04:30:44;100712.88;;;-1.12;100.00
7052;BME280;3567;52.444;13.556;2022-11-20T04:33:10;100715.50;;;-1.12;100.00
7052;BME280;3567;52.444;13.556;2022-11-20T04:35:37;100710.25;;;-1.12;100.00
7052;BME280;3567;52.444;13.556;2022-11-20T04:38:03;100709.13;;;-1.09;100.00
7052;BME280;3567;52.444;13.556;2022-11-20T04:40:28;100711.56;;;-1.08;100.00
7052;BME280;3567;52.444;13.556;2022-11-20T04:42:54;100705.34;;;-1.07;100.00
7052;BME280;3567;52.444;13.556;2022-11-20T04:45:20;100699.25;;;-1.07;100.00
7052;BME280;3567;52.444;13.556;2022-11-20T04:47:46;100692.19;;;-1.07;100.00
7052;BME280;3567;52.444;13.556;2022-11-20T04:50:11;100694.00;;;-1.07;100.00
7052;BME280;3567;52.444;13.556;2022-11-20T04:52:37;100696.50;;;-1.06;100.00
7052;BME280;3567;52.444;13.556;2022-11-20T04:55:09;100689.56;;;-1.07;100.00
7052;BME280;3567;52.444;13.556;2022-11-20T04:57:34;100697.31;;;-1.05;100.00
7052;BME280;3567;52.444;13.556;2022-11-20T04:59:59;100687.63;;;-1.04;100.00
7052;BME280;3567;52.444;13.556;2022-11-20T05:02:25;100693.88;;;-1.06;100.00
7052;BME280;3567;52.444;13.556;2022-11-20T05:04:50;100685.00;;;-1.04;100.00
7052;BME280;3567;52.444;13.556;2022-11-20T05:07:16;100678.09;;;-1.06;100.00
7052;BME280;3567;52.444;13.556;2022-11-20T05:09:42;100685.97;;;-1.06;100.00
7052;BME280;3567;52.444;13.556;2022-11-20T05:12:08;100677.09;;;-1.04;100.00
7052;BME280;3567;52.444;13.556;2022-11-20T05:14:34;100680.56;;;-1.04;100.00
7052;BME280;3567;52.444;13.556;2022-11-20T05:16:59;100672.66;;;-1.04;100.00
7052;BME280;3567;52.444;13.556;2022-11-20T05:19:24;100671.69;;;-1.03;100.00
7052;BME280;3567;52.444;13.556;2022-11-20T05:21:50;100668.06;;;-1.02;100.00
7052;BME280;3567;52.444;13.556;2022-11-20T05:24:15;100667.13;;;-1.01;100.00
7052;BME280;3567;52.444;13.556;2022-11-20T05:26:40;100664.31;;;-0.99;100.00
7052;BME280;3567;52.444;13.556;2022-11-20T05:29:06;100668.59;;;-0.98;100.00
7052;BME280;3567;52.444;13.556;2022-11-20T05:31:31;100669.41;;;-0.98;100.00
7052;BME280;3567;52.444;13.556;2022-11-20T05:33:57;100669.25;;;-0.96;100.00
7052;BME280;3567;52.444;13.556;2022-11-20T05:36:22;100673.56;;;-0.95;100.00
7052;BME280;3567;52.444;13.556;2022-11-20T05:38:48;100667.31;;;-0.94;100.00
7052;BME280;3567;52.444;13.556;2022-11-20T05:41:16;100663.53;;;-0.92;100.00
7052;BME280;3567;52.444;13.556;2022-11-20T05:43:44;100670.44;;;-0.91;100.00
7052;BME280;3567;52.444;13.556;2022-11-20T05:46:11;100668.66;;;-0.90;100.00
7052;BME280;3567;52.444;13.556;2022-11-20T05:48:38;100673.06;;;-0.91;100.00
7052;BME280;3567;52.444;13.556;2022-11-20T05:51:05;100675.84;;;-0.92;100.00
7052;BME280;3567;52.444;13.556;2022-11-20T05:53:35;100662.88;;;-0.94;100.00
7052;BME280;3567;52.444;13.556;2022-11-20T05:56:05;100657.63;;;-0.94;100.00
7052;BME280;3567;52.444;13.556;2022-11-20T05:58:32;100656.78;;;-0.94;100.00
7052;BME280;3567;52.444;13.556;2022-11-20T06:01:14;100659.44;;;-0.94;100.00
7052;BME280;3567;52.444;13.556;2022-11-20T06:03:40;100658.44;;;-0.93;100.00
7052;BME280;3567;52.444;13.556;2022-11-20T06:06:07;100659.25;;;-0.93;100.00
7052;BME280;3567;52.444;13.556;2022-11-20T06:08:33;100661.72;;;-0.91;100.00
7052;BME280;3567;52.444;13.556;2022-11-20T06:11:03;100665.03;;;-0.89;100.00
7052;BME280;3567;52.444;13.556;2022-11-20T06:13:28;100654.53;;;-0.89;100.00
7052;BME280;3567;52.444;13.556;2022-11-20T06:15:54;100657.81;;;-0.87;100.00
7052;BME280;3567;52.444;13.556;2022-11-20T06:18:19;100657.81;;;-0.87;100.00
7052;BME280;3567;52.444;13.556;2022-11-20T06:20:45;100656.69;;;-0.85;100.00
7052;BME280;3567;52.444;13.556;2022-11-20T06:23:12;100661.94;;;-0.85;100.00
7052;BME280;3567;52.444;13.556;2022-11-20T06:25:41;100653.25;;;-0.85;100.00
7052;BME280;3567;52.444;13.556;2022-11-20T06:28:07;100657.50;;;-0.84;100.00
7052;BME280;3567;52.444;13.556;2022-11-20T06:30:34;100653.91;;;-0.83;100.00
7052;BME280;3567;52.444;13.556;2022-11-20T06:32:59;100657.19;;;-0.81;100.00
7052;BME280;3567;52.444;13.556;2022-11-20T06:35:25;100642.56;;;-0.84;100.00
7052;BME280;3567;52.444;13.556;2022-11-20T06:37:50;100646.66;;;-0.81;100.00
7052;BME280;3567;52.444;13.556;2022-11-20T06:40:15;100659.81;;;-0.81;100.00
7052;BME280;3567;52.444;13.556;2022-11-20T06:42:41;100662.44;;;-0.81;100.00
7052;BME280;3567;52.444;13.556;2022-11-20T06:45:07;100659.16;;;-0.83;100.00
7052;BME280;3567;52.444;13.556;2022-11-20T06:47:33;100654.88;;;-0.84;100.00
7052;BME280;3567;52.444;13.556;2022-11-20T06:49:58;100656.69;;;-0.85;100.00
7052;BME280;3567;52.444;13.556;2022-11-20T06:52:23;100648.63;;;-0.83;100.00
7052;BME280;3567;52.444;13.556;2022-11-20T06:54:49;100645.19;;;-0.84;100.00
7052;BME280;3567;52.444;13.556;2022-11-20T06:57:14;100651.25;;;-0.83;100.00
7052;BME280;3567;52.444;13.556;2022-11-20T06:59:40;100650.28;;;-0.82;100.00
7052;BME280;3567;52.444;13.556;2022-11-20T07:02:11;100648.63;;;-0.83;100.00
7052;BME280;3567;52.444;13.556;2022-11-20T07:04:37;100651.09;;;-0.82;100.00
7052;BME280;3567;52.444;13.556;2022-11-20T07:07:03;100657.03;;;-0.80;100.00
7052;BME280;3567;52.444;13.556;2022-11-20T07:09:28;100655.25;;;-0.79;100.00
7052;BME280;3567;52.444;13.556;2022-11-20T07:11:53;100663.78;;;-0.77;100.00
7052;BME280;3567;52.444;13.556;2022-11-20T07:14:19;100658.53;;;-0.77;100.00
7052;BME280;3567;52.444;13.556;2022-11-20T07:16:44;100656.72;;;-0.76;100.00
7052;BME280;3567;52.444;13.556;2022-11-20T07:19:09;100661.00;;;-0.75;100.00
7052;BME280;3567;52.444;13.556;2022-11-20T07:21:35;100648.81;;;-0.76;100.00
7052;BME280;3567;52.444;13.556;2022-11-20T07:24:00;100646.38;;;-0.78;100.00
7052;BME280;3567;52.444;13.556;2022-11-20T07:26:25;100640.28;;;-0.78;100.00
7052;BME280;3567;52.444;13.556;2022-11-20T07:28:51;100641.41;;;-0.81;100.00
7052;BME280;3567;52.444;13.556;2022-11-20T07:31:16;100645.19;;;-0.84;100.00
7052;BME280;3567;52.444;13.556;2022-11-20T07:33:41;100645.47;;;-0.87;100.00
7052;BME280;3567;52.444;13.556;2022-11-20T07:36:07;100640.41;;;-0.88;100.00
7052;BME280;3567;52.444;13.556;2022-11-20T07:38:32;100649.25;;;-0.89;100.00
7052;BME280;3567;52.444;13.556;2022-11-20T07:40:58;100645.81;;;-0.90;100.00
7052;BME280;3567;52.444;13.556;2022-11-20T07:43:26;100649.25;;;-0.89;100.00
7052;BME280;3567;52.444;13.556;2022-11-20T07:45:55;100647.63;;;-0.90;100.00
7052;BME280;3567;52.444;13.556;2022-11-20T07:48:20;100639.56;;;-0.89;100.00
7052;BME280;3567;52.444;13.556;2022-11-20T07:50:45;100647.47;;;-0.89;100.00
7052;BME280;3567;52.444;13.556;2022-11-20T07:53:11;100647.28;;;-0.87;100.00
7052;BME280;3567;52.444;13.556;2022-11-20T07:55:37;100642.84;;;-0.87;100.00
7052;BME280;3567;52.444;13.556;2022-11-20T07:58:03;100641.03;;;-0.86;100.00
7052;BME280;3567;52.444;13.556;2022-11-20T08:00:28;100639.09;;;-0.84;100.00
7052;BME280;3567;52.444;13.556;2022-11-20T08:02:53;100638.63;;;-0.80;100.00
7052;BME280;3567;52.444;13.556;2022-11-20T08:05:20;100635.16;;;-0.80;100.00
7052;BME280;3567;52.444;13.556;2022-11-20T08:07:45;100644.25;;;-0.74;100.00
7052;BME280;3567;52.444;13.556;2022-11-20T08:10:13;100640.47;;;-0.72;100.00
7052;BME280;3567;52.444;13.556;2022-11-20T08:12:51;100633.22;;;-0.70;100.00
7052;BME280;3567;52.444;13.556;2022-11-20T08:15:37;100628.78;;;-0.69;100.00
7052;BME280;3567;52.444;13.556;2022-11-20T08:18:08;100632.94;;;-0.67;100.00
7052;BME280;3567;52.444;13.556;2022-11-20T08:20:34;100631.63;;;-0.63;100.00
7052;BME280;3567;52.444;13.556;2022-11-20T08:23:05;100628.03;;;-0.62;100.00
7052;BME280;3567;52.444;13.556;2022-11-20T08:25:31;100632.13;;;-0.59;100.00
7052;BME280;3567;52.444;13.556;2022-11-20T08:27:58;100640.53;;;-0.56;100.00
7052;BME280;3567;52.444;13.556;2022-11-20T08:30:24;100636.25;;;-0.57;100.00
7052;BME280;3567;52.444;13.556;2022-11-20T08:32:49;100630.66;;;-0.54;100.00
7052;BME280;3567;52.444;13.556;2022-11-20T08:35:15;100626.91;;;-0.51;100.00
7052;BME280;3567;52.444;13.556;2022-11-20T08:37:40;100631.00;;;-0.48;100.00
7052;BME280;3567;52.444;13.556;2022-11-20T08:40:09;100634.34;;;-0.46;100.00
7052;BME280;3567;52.444;13.556;2022-11-20T08:42:35;100622.00;;;-0.46;100.00
7052;BME280;3567;52.444;13.556;2022-11-20T08:45:00;100624.47;;;-0.44;100.00
7052;BME280;3567;52.444;13.556;2022-11-20T08:47:26;100618.53;;;-0.46;100.00
7052;BME280;3567;52.444;13.556;2022-11-20T08:49:51;100622.97;;;-0.47;100.00
7052;BME280;3567;52.444;13.556;2022-11-20T08:52:16;100621.34;;;-0.48;100.00
7052;BME280;3567;52.444;13.556;2022-11-20T08:54:42;100623.81;;;-0.46;100.00
7052;BME280;3567;52.444;13.556;2022-11-20T08:57:07;100623.81;;;-0.46;100.00
7052;BME280;3567;52.444;13.556;2022-11-20T08:59:32;100617.22;;;-0.50;100.00
7052;BME280;3567;52.444;13.556;2022-11-20T09:01:58;100624.44;;;-0.52;100.00
7052;BME280;3567;52.444;13.556;2022-11-20T09:04:23;100616.84;;;-0.56;100.00
7052;BME280;3567;52.444;13.556;2022-11-20T09:06:49;100615.72;;;-0.53;100.00
7052;BME280;3567;52.444;13.556;2022-11-20T09:09:17;100618.19;;;-0.51;100.00
7052;BME280;3567;52.444;13.556;2022-11-20T09:11:43;100615.41;;;-0.50;100.00
7052;BME280;3567;52.444;13.556;2022-11-20T09:14:09;100604.69;;;-0.48;100.00
7052;BME280;3567;52.444;13.556;2022-11-20T09:16:34;100611.63;;;-0.47;100.00
7052;BME280;3567;52.444;13.556;2022-11-20T09:18:59;100621.19;;;-0.46;100.00
7052;BME280;3567;52.444;13.556;2022-11-20T09:21:25;100619.38;;;-0.46;100.00
7052;BME280;3567;52.444;13.556;2022-11-20T09:23:50;100627.09;;;-0.44;100.00
7052;BME280;3567;52.444;13.556;2022-11-20T09:26:15;100630.53;;;-0.44;100.00
7052;BME280;3567;52.444;13.556;2022-11-20T09:28:41;100626.63;;;-0.40;100.00
7052;BME280;3567;52.444;13.556;2022-11-20T09:31:17;100626.44;;;-0.38;100.00
7052;BME280;3567;52.444;13.556;2022-11-20T09:33:44;100624.50;;;-0.36;100.00
7052;BME280;3567;52.444;13.556;2022-11-20T09:36:10;100622.53;;;-0.34;100.00
7052;BME280;3567;52.444;13.556;2022-11-20T09:38:35;100616.44;;;-0.35;100.00
7052;BME280;3567;52.444;13.556;2022-11-20T09:41:06;100622.53;;;-0.34;100.00
7052;BME280;3567;52.444;13.556;2022-11-20T09:46:29;100617.59;;;-0.37;100.00
7052;BME280;3567;52.444;13.556;2022-11-20T09:51:58;100607.72;;;-0.27;100.00
7052;BME280;3567;52.444;13.556;2022-11-20T09:54:37;100612.97;;;-0.27;100.00
7052;BME280;3567;52.444;13.556;2022-11-20T09:57:11;100606.91;;;-0.28;100.00
7052;BME280;3567;52.444;13.556;2022-11-20T09:59:41;100608.56;;;-0.27;100.00
7052;BME280;3567;52.444;13.556;2022-11-20T10:04:52;100612.81;;;-0.34;100.00
7052;BME280;3567;52.444;13.556;2022-11-20T10:07:29;100607.25;;;-0.31;100.00
7052;BME280;3567;52.444;13.556;2022-11-20T10:09:57;100603.44;;;-0.36;100.00
7052;BME280;3567;52.444;13.556;2022-11-20T10:15:11;100594.56;;;-0.35;100.00
7052;BME280;3567;52.444;13.556;2022-11-20T10:17:55;100593.91;;;-0.37;100.00
7052;BME280;3567;52.444;13.556;2022-11-20T10:24:16;100605.72;;;-0.41;100.00
7052;BME280;3567;52.444;13.556;2022-11-20T10:29:19;100603.59;;;-0.38;100.00
7052;BME280;3567;52.444;13.556;2022-11-20T10:32:00;100592.72;;;-0.43;100.00
7052;BME280;3567;52.444;13.556;2022-11-20T10:37:22;100589.78;;;-0.40;100.00
7052;BME280;3567;52.444;13.556;2022-11-20T10:42:34;100584.34;;;-0.38;100.00
7052;BME280;3567;52.444;13.556;2022-11-20T10:45:27;100584.03;;;-0.35;100.00
7052;BME280;3567;52.444;13.556;2022-11-20T10:56:33;100574.16;;;-0.33;100.00
7052;BME280;3567;52.444;13.556;2022-11-20T10:59:11;100584.72;;;-0.25;100.00
7052;BME280;3567;52.444;13.556;2022-11-20T11:01:41;100577.31;;;-0.13;100.00
7052;BME280;3567;52.444;13.556;2022-11-20T11:07:09;100572.72;;;-0.03;100.00
7052;BME280;3567;52.444;13.556;2022-11-20T11:09:40;100580.97;;;0.02;100.00
7052;BME280;3567;52.444;13.556;2022-11-20T11:12:08;100574.53;;;0.05;100.00
7052;BME280;3567;52.444;13.556;2022-11-20T11:14:45;100567.31;;;0.07;100.00
7052;BME280;3567;52.444;13.556;2022-11-20T11:17:28;100557.91;;;0.04;100.00
7052;BME280;3567;52.444;13.556;2022-11-20T11:20:24;100563.00;;;-0.03;100.00
7052;BME280;3567;52.444;13.556;2022-11-20T11:22:56;100566.81;;;-0.05;100.00
7052;BME280;3567;52.444;13.556;2022-11-20T11:25:31;100563.50;;;-0.07;100.00
7052;BME280;3567;52.444;13.556;2022-11-20T11:28:20;100555.44;;;-0.06;100.00
7052;BME280;3567;52.444;13.556;2022-11-20T11:30:46;100554.47;;;-0.05;100.00
7052;BME280;3567;52.444;13.556;2022-11-20T11:33:26;100558.06;;;0.03;100.00
7052;BME280;3567;52.444;13.556;2022-11-20T11:35:53;100554.78;;;0.09;100.00
7052;BME280;3567;52.444;13.556;2022-11-20T11:38:37;100552.16;;;0.17;100.00
7052;BME280;3567;52.444;13.556;2022-11-20T11:41:06;100552.31;;;0.23;100.00
7052;BME280;3567;52.444;13.556;2022-11-20T11:43:34;100546.19;;;0.31;100.00
7052;BME280;3567;52.444;13.556;2022-11-20T11:48:55;100543.53;;;0.47;100.00
7052;BME280;3567;52.444;13.556;2022-11-20T11:51:21;100543.53;;;0.56;100.00
7052;BME280;3567;52.444;13.556;2022-11-20T11:53:46;100541.53;;;0.66;100.00
7052;BME280;3567;52.444;13.556;2022-11-20T11:56:13;100543.50;;;0.72;100.00
7052;BME280;3567;52.444;13.556;2022-11-20T11:58:46;100534.28;;;0.68;100.00
7052;BME280;3567;52.444;13.556;2022-11-20T12:06:25;100533.72;;;0.89;100.00
7052;BME280;3567;52.444;13.556;2022-11-20T12:08:56;100526.75;;;0.96;100.00
7052;BME280;3567;52.444;13.556;2022-11-20T12:11:45;100525.91;;;1.03;100.00
7052;BME280;3567;52.444;13.556;2022-11-20T12:14:22;100530.88;;;1.07;100.00
7052;BME280;3567;52.444;13.556;2022-11-20T12:16:53;100537.94;;;1.06;100.00
7052;BME280;3567;52.444;13.556;2022-11-20T12:19:20;100528.22;;;1.07;100.00
7052;BME280;3567;52.444;13.556;2022-11-20T12:30:24;100519.66;;;1.04;100.00
7052;BME280;3567;52.444;13.556;2022-11-20T12:43:47;100512.94;;;0.94;100.00
7052;BME280;3567;52.444;13.556;2022-11-20T12:55:31;100502.81;;;1.05;100.00
7052;BME280;3567;52.444;13.556;2022-11-20T12:58:37;100505.13;;;1.09;100.00
7052;BME280;3567;52.444;13.556;2022-11-20T13:06:38;100495.59;;;0.99;100.00
7052;BME280;3567;52.444;13.556;2022-11-20T13:09:08;100490.69;;;0.96;100.00
7052;BME280;3567;52.444;13.556;2022-11-20T13:17:09;100476.53;;;0.89;100.00
7052;BME280;3567;52.444;13.556;2022-11-20T13:19:37;100482.97;;;0.87;100.00
7052;BME280;3567;52.444;13.556;2022-11-20T13:22:03;100480.22;;;0.80;100.00
7052;BME280;3567;52.444;13.556;2022-11-20T13:24:30;100481.34;;;0.77;100.00
7052;BME280;3567;52.444;13.556;2022-11-20T13:27:18;100475.13;;;0.70;100.00
7052;BME280;3567;52.444;13.556;2022-11-20T13:29:47;100473.00;;;0.66;100.00
7052;BME280;3567;52.444;13.556;2022-11-20T13:32:24;100470.06;;;0.61;100.00
7052;BME280;3567;52.444;13.556;2022-11-20T13:35:00;100474.84;;;0.57;100.00
7052;BME280;3567;52.444;13.556;2022-11-20T13:40:11;100468.44;;;0.51;100.00
7052;BME280;3567;52.444;13.556;2022-11-20T13:45:25;100462.97;;;0.53;100.00
7052;BME280;3567;52.444;13.556;2022-11-20T13:47:52;100454.63;;;0.49;100.00
7052;BME280;3567;52.444;13.556;2022-11-20T13:50:18;100465.31;;;0.48;100.00
7052;BME280;3567;52.444;13.556;2022-11-20T14:00:43;100462.88;;;0.38;100.00
7052;BME280;3567;52.444;13.556;2022-11-20T14:03:17;100463.53;;;0.40;100.00
7052;BME280;3567;52.444;13.556;2022-11-20T14:05:52;100467.66;;;0.43;100.00
7052;BME280;3567;52.444;13.556;2022-11-20T14:08:29;100469.63;;;0.41;100.00
7052;BME280;3567;52.444;13.556;2022-11-20T14:14:04;100467.16;;;0.39;100.00
7052;BME280;3567;52.444;13.556;2022-11-20T14:16:33;100460.25;;;0.38;100.00
7052;BME280;3567;52.444;13.556;2022-11-20T14:21:51;100463.03;;;0.37;100.00
7052;BME280;3567;52.444;13.556;2022-11-20T14:24:22;100463.53;;;0.40;100.00
7052;BME280;3567;52.444;13.556;2022-11-20T14:26:48;100451.84;;;0.43;100.00
7052;BME280;3567;52.444;13.556;2022-11-20T14:29:19;100461.53;;;0.42;100.00
7052;BME280;3567;52.444;13.556;2022-11-20T14:31:46;100463.53;;;0.40;100.00
7052;BME280;3567;52.444;13.556;2022-11-20T14:34:17;100464.53;;;0.39;100.00
7052;BME280;3567;52.444;13.556;2022-11-20T14:36:44;100456.63;;;0.39;100.00
7052;BME280;3567;52.444;13.556;2022-11-20T14:39:26;100461.06;;;0.39;100.00
7052;BME280;3567;52.444;13.556;2022-11-20T14:41:54;100460.91;;;0.40;100.00
7052;BME280;3567;52.444;13.556;2022-11-20T14:44:24;100470.78;;;0.38;100.00
7052;BME280;3567;52.444;13.556;2022-11-20T14:46:51;100458.59;;;0.37;100.00